Time;durP1;ratioP1;P1;durP2;ratioP2;P2;SDS_P1;SDS_P2;PMS_P1;PMS_P2;Temp;Humidity;BMP_temperature;BMP_pressure;BME280_temperature;BME280_humidity;BME280_pressure;Samples;Min_cycle;Max_cycle;Signal;HPM_P1;HPM_P2
2024/01/11 00:01:29;;;;;;;28.17;14.10;;;;;;;-0.63;59.20;103098.78;5037586;28;20029;-94
2024/01/11 00:03:54;;;;;;;27.90;13.40;;;;;;;-0.66;59.25;103089.78;5038211;28;20390;-94
2024/01/11 00:06:20;;;;;;;22.90;13.15;;;;;;;-0.59;58.72;103102.56;5020599;28;20034;-93
2024/01/11 00:08:45;;;;;;;27.88;12.75;;;;;;;-0.52;59.17;103110.13;5004731;28;20034;-94
2024/01/11 00:11:11;;;;;;;29.77;13.07;;;;;;;-0.70;59.15;103083.41;5004133;28;20121;-94
2024/01/11 00:13:36;;;;;;;29.95;13.80;;;;;;;-0.66;58.97;103107.97;5003380;28;20041;-94
2024/01/11 00:16:02;;;;;;;28.58;12.90;;;;;;;-0.76;59.70;103094.13;5019031;28;20111;-93
2024/01/11 00:18:28;;;;;;;29.63;13.52;;;;;;;-0.65;59.81;103113.28;5036074;28;20029;-94
2024/01/11 00:20:53;;;;;;;29.20;13.50;;;;;;;-0.69;59.44;103115.44;5036571;28;20033;-95
2024/01/11 00:23:19;;;;;;;28.30;13.05;;;;;;;-0.90;59.80;103089.34;5019231;28;20045;-94
2024/01/11 00:25:44;;;;;;;27.98;13.68;;;;;;;-0.89;59.83;103113.63;5036609;28;20029;-93
2024/01/11 00:28:09;;;;;;;28.70;13.60;;;;;;;-1.10;60.20;103081.41;5002734;28;20060;-94
2024/01/11 00:30:37;;;;;;;27.92;13.43;;;;;;;-0.97;60.28;103114.59;5039147;28;20136;-94
2024/01/11 00:33:03;;;;;;;27.58;13.68;;;;;;;-0.96;60.31;103114.72;5036100;28;20034;-94
2024/01/11 00:35:28;;;;;;;26.65;13.50;;;;;;;-0.94;60.73;103114.84;5036514;28;20421;-94
2024/01/11 00:37:54;;;;;;;28.25;14.02;;;;;;;-0.88;61.05;103110.25;4986224;28;20466;-94
2024/01/11 00:40:19;;;;;;;28.80;12.98;;;;;;;-0.86;60.51;103113.88;4985738;28;20037;-94
2024/01/11 00:42:44;;;;;;;28.73;13.07;;;;;;;-0.83;59.86;103122.88;5002887;28;20030;-93
2024/01/11 00:45:10;;;;;;;30.50;13.73;;;;;;;-0.82;60.71;103113.41;5018705;28;20045;-94
2024/01/11 00:47:35;;;;;;;28.88;14.15;;;;;;;-0.90;60.52;103098.78;5003009;28;20116;-94
2024/01/11 00:50:00;;;;;;;30.20;14.10;;;;;;;-0.82;60.44;103116.00;4985496;28;20044;-95
2024/01/11 00:52:26;;;;;;;27.25;13.70;;;;;;;-0.88;60.17;103105.06;5035954;28;20088;-94
2024/01/11 00:54:51;;;;;;;29.55;14.07;;;;;;;-0.90;60.65;103109.19;5018165;28;20025;-94
2024/01/11 00:57:17;;;;;;;30.33;14.40;;;;;;;-1.06;61.25;103081.81;5002114;28;20029;-94
2024/01/11 00:59:42;;;;;;;26.85;13.70;;;;;;;-0.94;60.80;103112.25;5018194;28;20051;-94
2024/01/11 01:02:08;;;;;;;29.05;14.18;;;;;;;-1.06;60.96;103094.78;5019075;28;20083;-93
2024/01/11 01:04:37;;;;;;;32.50;14.30;;;;;;;-0.99;60.73;103103.13;5001848;28;20025;-94
2024/01/11 01:07:02;;;;;;;29.98;13.15;;;;;;;-1.01;61.24;103109.09;5002482;28;20474;-94
2024/01/11 01:09:27;;;;;;;25.60;12.75;;;;;;;-1.14;61.33;103094.84;4985602;28;20048;-94
2024/01/11 01:11:53;;;;;;;25.85;12.77;;;;;;;-1.12;61.14;103117.56;5017149;28;20087;-94
2024/01/11 01:14:18;;;;;;;31.50;14.25;;;;;;;-1.26;61.22;103102.38;5002971;28;20406;-94
2024/01/11 01:16:44;;;;;;;30.75;13.55;;;;;;;-1.18;61.16;103121.25;5035424;28;20034;-93
2024/01/11 01:19:09;;;;;;;27.60;13.60;;;;;;;-1.21;61.75;103128.75;5022137;28;20040;-92
2024/01/11 01:21:34;;;;;;;27.67;13.48;;;;;;;-1.31;61.90;103122.69;5058255;28;20021;-92
2024/01/11 01:24:00;;;;;;;30.35;13.82;;;;;;;-1.23;61.29;103130.28;5058404;28;20013;-94
2024/01/11 01:26:25;;;;;;;29.35;13.65;;;;;;;-1.19;61.95;103138.50;5004084;28;20076;-92
2024/01/11 01:28:50;;;;;;;29.40;14.40;;;;;;;-1.28;61.78;103135.06;5036691;28;20374;-93
2024/01/11 01:31:16;;;;;;;27.83;13.55;;;;;;;-1.32;62.05;103139.03;5001465;28;20068;-94
2024/01/11 01:33:41;;;;;;;33.05;14.65;;;;;;;-1.27;62.28;103142.97;5001405;28;20136;-93
2024/01/11 01:36:10;;;;;;;32.05;14.68;;;;;;;-1.25;62.18;103143.09;5018016;28;20359;-93
2024/01/11 01:38:35;;;;;;;30.23;13.38;;;;;;;-1.28;62.04;103135.97;5017307;28;20347;-93
2024/01/11 01:41:01;;;;;;;27.00;13.07;;;;;;;-1.22;62.21;103142.50;5001102;28;20056;-93
2024/01/11 01:43:26;;;;;;;27.13;13.45;;;;;;;-1.23;62.50;103151.03;5016797;28;20046;-93
2024/01/11 01:45:52;;;;;;;24.13;12.73;;;;;;;-1.30;62.74;103149.53;5017287;28;20067;-93
2024/01/11 01:48:18;;;;;;;34.05;13.48;;;;;;;-1.34;62.51;103142.22;5001543;28;20040;-93
2024/01/11 01:50:50;;;;;;;31.23;14.93;;;;;;;-1.53;63.21;103121.41;5000485;28;20073;-93
2024/01/11 01:53:17;;;;;;;24.92;12.90;;;;;;;-1.43;62.78;103137.06;5017425;28;20071;-93
2024/01/11 01:55:42;;;;;;;26.73;13.57;;;;;;;-1.48;63.53;103138.31;5017115;28;20120;-93
2024/01/11 01:58:08;;;;;;;28.90;13.43;;;;;;;-1.45;63.32;103171.44;5000553;28;20067;-93
2024/01/11 02:00:33;;;;;;;27.33;13.70;;;;;;;-1.54;63.59;103159.41;5000446;28;20040;-93
2024/01/11 02:02:59;;;;;;;25.95;12.10;;;;;;;-1.65;63.88;103149.66;5000813;28;20116;-92
2024/01/11 02:05:24;;;;;;;31.45;15.40;;;;;;;-1.58;64.53;103164.13;5016971;28;20398;-93
2024/01/11 02:07:50;;;;;;;31.23;14.07;;;;;;;-1.63;63.89;103158.47;5034249;28;20036;-92
2024/01/11 02:10:16;;;;;;;29.75;14.23;;;;;;;-1.67;64.02;103156.38;5035571;28;20033;-92
2024/01/11 02:12:42;;;;;;;27.02;13.65;;;;;;;-1.61;65.15;103150.88;5001292;28;20045;-94
2024/01/11 02:15:07;;;;;;;27.30;13.00;;;;;;;-1.58;64.58;103140.81;5001338;28;20067;-92
2024/01/11 02:17:33;;;;;;;26.02;12.75;;;;;;;-1.53;63.62;103130.09;5017709;28;20403;-94
2024/01/11 02:19:59;;;;;;;25.15;12.55;;;;;;;-1.41;64.30;103151.13;5017448;28;20040;-93
2024/01/11 02:22:31;;;;;;;31.20;13.80;;;;;;;-1.49;64.24;103120.03;5018252;28;20025;-93
2024/01/11 02:24:58;;;;;;;29.63;13.38;;;;;;;-1.34;63.77;103142.22;5020787;28;20378;-92
2024/01/11 02:27:23;;;;;;;25.42;13.30;;;;;;;-1.33;63.73;103154.41;5020520;28;20021;-93
2024/01/11 02:29:48;;;;;;;28.42;13.82;;;;;;;-1.44;64.11;103155.09;5038131;28;20068;-94
2024/01/11 02:32:14;;;;;;;27.02;12.88;;;;;;;-1.55;64.07;103161.81;5004629;28;20033;-91
2024/01/11 02:34:42;;;;;;;26.27;12.95;;;;;;;-1.78;64.49;103151.81;5002592;28;20041;-93
2024/01/11 02:37:07;;;;;;;27.95;13.00;;;;;;;-1.86;64.44;103164.03;5017468;28;20034;-93
2024/01/11 02:39:33;;;;;;;26.80;13.68;;;;;;;-1.88;65.24;103168.16;5017539;28;20037;-92
2024/01/11 02:42:00;;;;;;;27.95;12.50;;;;;;;-1.92;65.43;103152.16;5003167;28;20029;-93
2024/01/11 02:44:25;;;;;;;31.65;13.20;;;;;;;-2.02;66.35;103148.66;5038786;28;20033;-91
2024/01/11 02:46:51;;;;;;;28.60;13.95;;;;;;;-2.13;66.07;103138.94;5022855;28;20401;-92
2024/01/11 02:49:16;;;;;;;25.00;13.23;;;;;;;-2.09;66.04;103145.31;5007592;28;20041;-92
2024/01/11 02:51:42;;;;;;;27.70;13.88;;;;;;;-2.21;66.00;103142.44;5024130;28;20044;-92
2024/01/11 02:54:07;;;;;;;29.30;13.73;;;;;;;-2.14;65.87;103154.28;5024713;28;20057;-92
2024/01/11 02:56:33;;;;;;;27.98;13.93;;;;;;;-2.30;66.19;103138.94;5027469;28;20048;-92
2024/01/11 02:58:58;;;;;;;27.73;13.68;;;;;;;-2.22;66.13;103150.97;5020586;28;20064;-91
2024/01/11 03:01:23;;;;;;;32.20;14.23;;;;;;;-2.19;65.98;103152.94;5027153;28;20044;-88
2024/01/11 03:03:49;;;;;;;31.88;15.00;;;;;;;-2.30;66.28;103145.03;5037094;28;20390;-93
2024/01/11 03:06:14;;;;;;;29.40;13.85;;;;;;;-2.28;66.22;103160.72;5023016;28;20405;-92
2024/01/11 03:08:40;;;;;;;30.95;15.40;;;;;;;-2.41;66.86;103148.22;5020988;28;20040;-93
2024/01/11 03:11:05;;;;;;;31.20;14.88;;;;;;;-2.46;66.50;103149.44;5019590;28;20053;-93
2024/01/11 03:13:31;;;;;;;32.85;13.95;;;;;;;-2.42;66.64;103169.69;5019322;28;20112;-92
2024/01/11 03:15:57;;;;;;;31.98;14.05;;;;;;;-2.61;66.99;103143.66;5019514;28;20036;-93
2024/01/11 03:18:22;;;;;;;32.03;14.15;;;;;;;-2.77;67.27;103115.31;5019299;28;20029;-92
2024/01/11 03:20:48;;;;;;;28.15;13.38;;;;;;;-2.68;67.21;103133.44;5019251;28;20036;-92
2024/01/11 03:23:13;;;;;;;29.15;14.27;;;;;;;-2.47;67.47;103163.16;5019624;28;20060;-91
2024/01/11 03:25:39;;;;;;;29.50;13.27;;;;;;;-2.71;67.68;103106.31;5019320;28;20037;-92
2024/01/11 03:28:04;;;;;;;32.00;14.48;;;;;;;-2.67;67.11;103117.13;5003150;28;20025;-92
2024/01/11 03:30:30;;;;;;;31.83;14.48;;;;;;;-2.70;67.65;103121.09;5031590;28;20390;-92
2024/01/11 03:32:55;;;;;;;29.63;13.77;;;;;;;-2.48;66.95;103165.56;5035539;28;20573;-91
2024/01/11 03:35:21;;;;;;;29.48;13.85;;;;;;;-2.70;67.42;103136.59;5035365;28;20441;-92
2024/01/11 03:37:47;;;;;;;31.40;14.15;;;;;;;-2.65;67.46;103140.59;5035588;28;20092;-92
2024/01/11 03:40:12;;;;;;;35.63;14.23;;;;;;;-2.69;67.11;103135.88;5036113;28;20516;-92
2024/01/11 03:42:37;;;;;;;28.85;13.60;;;;;;;-2.73;67.70;103137.25;5037149;28;20409;-92
2024/01/11 03:45:04;;;;;;;33.25;13.90;;;;;;;-2.59;67.28;103148.97;5035795;28;20108;-92
2024/01/11 03:47:30;;;;;;;29.67;13.77;;;;;;;-2.65;67.08;103146.69;5035336;28;20435;-91
2024/01/11 03:49:55;;;;;;;27.13;13.40;;;;;;;-2.59;67.29;103151.56;5036115;28;20041;-92
2024/01/11 03:52:21;;;;;;;28.40;13.15;;;;;;;-2.59;67.70;103152.47;5017880;28;20501;-92
2024/01/11 03:54:46;;;;;;;27.50;13.95;;;;;;;-2.53;67.28;103165.09;5034413;28;20045;-91
2024/01/11 03:57:11;;;;;;;27.65;13.13;;;;;;;-2.48;67.58;103168.16;5035684;28;20029;-91
2024/01/11 03:59:37;;;;;;;31.48;14.48;;;;;;;-2.50;67.31;103161.91;5018395;28;20436;-91
2024/01/11 04:02:02;;;;;;;31.80;13.82;;;;;;;-2.54;67.63;103159.00;5035368;28;20063;-91
2024/01/11 04:04:28;;;;;;;31.17;14.05;;;;;;;-2.55;67.17;103152.03;5036551;28;20429;-91
2024/01/11 04:06:53;;;;;;;29.65;13.63;;;;;;;-2.54;67.10;103143.47;5035384;28;20041;-91
2024/01/11 04:09:20;;;;;;;25.80;12.60;;;;;;;-2.61;67.23;103135.88;5035265;28;20553;-91
2024/01/11 04:11:46;;;;;;;31.23;14.50;;;;;;;-2.78;67.47;103143.63;5019213;28;20033;-91
2024/01/11 04:14:11;;;;;;;31.25;14.20;;;;;;;-2.66;67.33;103177.56;5018602;28;20098;-91
2024/01/11 04:16:43;;;;;;;27.55;13.82;;;;;;;-2.96;68.04;103157.25;5018754;28;20052;-91
2024/01/11 04:19:09;;;;;;;29.65;13.48;;;;;;;-2.99;68.46;103175.06;5035115;28;20037;-91
2024/01/11 04:21:34;;;;;;;27.92;13.45;;;;;;;-3.01;69.11;103195.59;5035488;28;20501;-91
2024/01/11 04:24:00;;;;;;;28.92;13.60;;;;;;;-3.04;68.50;103183.28;5038942;28;20061;-90
2024/01/11 04:26:25;;;;;;;24.10;11.70;;;;;;;-2.92;68.75;103190.44;5039450;28;20044;-90
2024/01/11 04:28:52;;;;;;;26.90;13.35;;;;;;;-2.89;68.64;103194.25;5037397;28;20026;-90
2024/01/11 04:31:17;;;;;;;28.60;12.63;;;;;;;-2.91;68.62;103192.25;5004898;28;20034;-90
2024/01/11 04:33:43;;;;;;;28.67;12.23;;;;;;;-2.92;68.03;103174.91;5028634;28;20053;-88
2024/01/11 04:36:10;;;;;;;29.10;12.68;;;;;;;-2.77;67.53;103211.03;5050998;28;20026;-87
2024/01/11 04:38:37;;;;;;;26.48;12.55;;;;;;;-2.85;67.47;103199.00;5023952;28;20033;-90
2024/01/11 04:41:12;;;;;;;26.42;12.40;;;;;;;-2.80;68.08;103215.88;5037710;28;20029;-90
2024/01/11 04:43:44;;;;;;;27.00;12.40;;;;;;;-2.86;68.15;103211.78;5036146;28;20056;-90
2024/01/11 04:46:21;;;;;;;26.33;11.80;;;;;;;-3.07;68.01;103166.53;5017809;28;20048;-90
2024/01/11 04:48:48;;;;;;;26.40;12.55;;;;;;;-2.98;67.89;103187.25;5035518;28;20030;-90
2024/01/11 04:51:15;;;;;;;32.13;12.77;;;;;;;-2.96;68.32;103194.38;5035440;28;20034;-90
2024/01/11 04:53:41;;;;;;;23.50;10.68;;;;;;;-2.85;68.11;103206.75;5017524;28;20044;-90
2024/01/11 04:56:07;;;;;;;25.70;11.77;;;;;;;-2.88;68.21;103190.00;5035026;28;20132;-90
2024/01/11 04:58:33;;;;;;;27.48;12.90;;;;;;;-2.83;68.33;103197.47;5035044;28;20486;-90
2024/01/11 05:00:59;;;;;;;24.15;11.50;;;;;;;-2.77;67.76;103199.78;5017345;28;20053;-90
2024/01/11 05:03:25;;;;;;;27.20;11.68;;;;;;;-2.70;67.86;103198.72;5035250;28;20037;-90
2024/01/11 05:05:50;;;;;;;24.70;11.73;;;;;;;-2.71;67.69;103202.97;5000958;28;20040;-90
2024/01/11 05:08:16;;;;;;;24.98;11.95;;;;;;;-2.68;67.87;103211.06;5000989;28;20048;-90
2024/01/11 05:10:41;;;;;;;26.60;12.85;;;;;;;-2.65;67.34;103218.25;5001399;28;20037;-90
2024/01/11 05:13:07;;;;;;;27.48;13.00;;;;;;;-2.71;68.28;103217.59;5000780;28;20071;-90
2024/01/11 05:15:33;;;;;;;25.10;12.35;;;;;;;-2.82;67.98;103213.94;5001437;28;20477;-90
2024/01/11 05:17:58;;;;;;;24.88;12.07;;;;;;;-2.87;68.03;103216.03;4984912;28;20045;-90
2024/01/11 05:20:24;;;;;;;28.48;13.25;;;;;;;-2.94;68.45;103220.41;5000551;28;20478;-91
2024/01/11 05:22:49;;;;;;;27.05;13.05;;;;;;;-3.01;68.64;103213.69;5000701;28;20075;-90
2024/01/11 05:25:14;;;;;;;27.55;12.40;;;;;;;-3.02;69.03;103217.03;5017054;28;20482;-90
2024/01/11 05:27:40;;;;;;;24.17;11.88;;;;;;;-3.00;69.28;103228.44;5000305;28;20033;-90
2024/01/11 05:30:06;;;;;;;26.27;12.52;;;;;;;-3.11;69.53;103223.84;5000638;28;20064;-90
2024/01/11 05:32:31;;;;;;;24.35;12.50;;;;;;;-3.19;69.49;103230.81;5000297;28;20034;-90
2024/01/11 05:34:57;;;;;;;26.55;12.85;;;;;;;-3.30;69.85;103229.69;5034441;28;20034;-90
2024/01/11 05:37:22;;;;;;;22.63;11.32;;;;;;;-3.29;70.43;103231.53;5016509;28;20478;-90
2024/01/11 05:39:47;;;;;;;27.02;12.68;;;;;;;-3.34;70.38;103248.22;5000279;28;20037;-89
2024/01/11 05:42:13;;;;;;;25.45;12.32;;;;;;;-3.35;70.47;103256.72;4984239;28;20436;-91
2024/01/11 05:44:38;;;;;;;26.92;12.98;;;;;;;-3.44;70.51;103255.75;5000529;28;20112;-91
2024/01/11 05:47:04;;;;;;;28.15;12.80;;;;;;;-3.49;71.84;103246.59;5016745;28;20033;-91
2024/01/11 05:49:29;;;;;;;22.95;12.35;;;;;;;-3.34;70.95;103232.72;5033998;28;20134;-91
2024/01/11 05:51:55;;;;;;;24.40;11.73;;;;;;;-3.22;70.99;103237.31;5000048;28;20037;-91
2024/01/11 05:54:20;;;;;;;23.25;11.63;;;;;;;-3.14;70.73;103231.28;4983963;28;20087;-91
2024/01/11 05:56:45;;;;;;;23.42;11.80;;;;;;;-3.11;71.03;103237.69;4984032;28;20076;-91
2024/01/11 05:59:11;;;;;;;23.42;11.95;;;;;;;-3.10;71.22;103238.59;5016357;28;20454;-90
2024/01/11 06:01:42;;;;;;;23.00;11.73;;;;;;;-3.19;70.83;103240.22;5000222;28;20030;-91
2024/01/11 06:04:08;;;;;;;23.88;11.73;;;;;;;-3.25;70.69;103232.75;5016424;28;20033;-91
2024/01/11 06:06:33;;;;;;;26.10;11.88;;;;;;;-3.56;71.43;103201.09;5016578;28;20041;-91
2024/01/11 06:08:59;;;;;;;22.20;11.27;;;;;;;-3.29;71.70;103251.28;5034477;28;20037;-91
2024/01/11 06:11:24;;;;;;;23.85;11.25;;;;;;;-3.20;71.04;103266.84;5037442;28;20044;-91
2024/01/11 06:13:49;;;;;;;24.05;12.05;;;;;;;-3.24;71.57;103277.63;4990542;28;20041;-91
2024/01/11 06:16:15;;;;;;;23.77;12.38;;;;;;;-3.22;71.14;103263.16;5031276;28;20041;-87
2024/01/11 06:18:40;;;;;;;25.88;12.80;;;;;;;-3.20;71.03;103259.09;5013405;28;20033;-90
2024/01/11 06:21:06;;;;;;;26.52;11.95;;;;;;;-3.29;71.54;103244.44;5002101;28;20033;-92
2024/01/11 06:23:31;;;;;;;25.05;11.95;;;;;;;-3.18;72.30;103250.72;4988853;28;20040;-91
2024/01/11 06:25:57;;;;;;;24.35;12.88;;;;;;;-3.14;70.78;103260.63;5037987;28;20120;-91
2024/01/11 06:28:22;;;;;;;24.70;11.80;;;;;;;-3.16;70.93;103251.81;4991166;28;20092;-91
2024/01/11 06:30:48;;;;;;;24.20;11.95;;;;;;;-3.10;71.08;103256.69;5047656;28;20058;-91
2024/01/11 06:33:14;;;;;;;23.75;11.48;;;;;;;-3.02;70.59;103274.84;4996842;28;20049;-91
2024/01/11 06:35:40;;;;;;;27.92;12.02;;;;;;;-3.31;70.29;103221.75;5045705;28;20100;-91
2024/01/11 06:38:05;;;;;;;22.23;11.45;;;;;;;-3.31;70.72;103212.34;5034871;28;20481;-91
2024/01/11 06:40:30;;;;;;;23.67;11.02;;;;;;;-3.09;70.30;103266.28;5000121;28;20069;-90
2024/01/11 06:42:56;;;;;;;28.48;12.18;;;;;;;-3.06;70.46;103277.88;5034263;28;20037;-90
2024/01/11 06:45:21;;;;;;;27.05;11.77;;;;;;;-3.21;70.97;103255.59;5016223;28;20519;-91
2024/01/11 06:47:48;;;;;;;25.85;11.35;;;;;;;-3.02;70.92;103279.09;5015483;28;20034;-91
2024/01/11 06:50:14;;;;;;;26.42;11.63;;;;;;;-3.17;70.20;103249.06;5015917;28;20041;-90
2024/01/11 06:52:40;;;;;;;26.45;12.43;;;;;;;-3.20;70.95;103254.84;4999677;28;20044;-91
2024/01/11 06:55:06;;;;;;;24.70;12.50;;;;;;;-3.18;70.20;103258.47;5016153;28;20446;-90
2024/01/11 06:57:31;;;;;;;25.55;11.73;;;;;;;-3.15;70.59;103284.66;5015628;28;20048;-91
2024/01/11 06:59:56;;;;;;;24.75;12.05;;;;;;;-3.19;70.85;103284.19;4999071;28;20121;-91
2024/01/11 07:02:22;;;;;;;22.23;12.02;;;;;;;-3.18;71.43;103286.91;4983438;28;20032;-91
2024/01/11 07:04:48;;;;;;;29.02;12.90;;;;;;;-3.14;71.64;103293.34;4999614;28;20053;-91
2024/01/11 07:07:13;;;;;;;28.85;13.35;;;;;;;-3.28;71.50;103281.56;5033339;28;20091;-90
2024/01/11 07:09:39;;;;;;;29.38;13.40;;;;;;;-3.34;71.72;103293.81;5033494;28;20060;-90
2024/01/11 07:12:05;;;;;;;24.73;12.40;;;;;;;-3.36;71.79;103303.09;4999752;28;20034;-91
2024/01/11 07:14:30;;;;;;;28.15;12.45;;;;;;;-3.56;72.69;103301.88;5033963;28;20114;-92
2024/01/11 07:16:56;;;;;;;28.58;12.13;;;;;;;-3.56;73.11;103322.53;4999441;28;20034;-92
2024/01/11 07:19:21;;;;;;;27.70;11.52;;;;;;;-3.62;72.86;103323.56;5015786;28;20030;-91
2024/01/11 07:21:47;;;;;;;23.98;11.00;;;;;;;-3.62;73.12;103313.22;4999625;28;20132;-91
2024/01/11 07:24:13;;;;;;;24.48;11.50;;;;;;;-3.70;73.06;103286.56;4999613;28;20033;-92
2024/01/11 07:26:38;;;;;;;29.02;12.07;;;;;;;-3.59;73.02;103306.72;4983392;28;20040;-86
2024/01/11 07:29:04;;;;;;;33.35;11.68;;;;;;;-3.62;73.18;103319.31;5018637;28;20065;-89
2024/01/11 07:31:29;;;;;;;25.85;12.05;;;;;;;-3.75;73.70;103323.00;5037302;28;20037;-88
2024/01/11 07:33:55;;;;;;;27.33;11.75;;;;;;;-3.87;74.55;103295.09;5036936;28;20116;-89
2024/01/11 07:36:20;;;;;;;25.83;11.63;;;;;;;-3.74;74.34;103322.25;5018610;28;20120;-88
2024/01/11 07:38:46;;;;;;;22.80;11.32;;;;;;;-3.72;74.23;103323.34;5018670;28;20359;-88
2024/01/11 07:41:11;;;;;;;27.88;12.13;;;;;;;-3.72;74.35;103320.75;5018836;28;20385;-87
2024/01/11 07:43:37;;;;;;;24.17;11.02;;;;;;;-3.71;74.60;103313.16;4986381;28;20375;-90
2024/01/11 07:46:03;;;;;;;26.73;11.40;;;;;;;-3.72;74.24;103301.00;5002608;28;20033;-90
2024/01/11 07:48:29;;;;;;;28.48;12.15;;;;;;;-3.66;73.96;103311.06;5019055;28;20091;-90
2024/01/11 07:50:54;;;;;;;23.27;11.40;;;;;;;-3.70;74.83;103319.25;5002377;28;20470;-90
2024/01/11 07:53:20;;;;;;;25.30;11.95;;;;;;;-3.79;75.36;103324.34;4986010;28;20051;-90
2024/01/11 07:55:47;;;;;;;26.85;12.82;;;;;;;-3.78;75.50;103314.16;5036746;28;20025;-91
2024/01/11 07:58:14;;;;;;;27.33;11.05;;;;;;;-3.72;76.22;103321.69;5004237;28;20029;-91
2024/01/11 08:00:40;;;;;;;25.60;12.30;;;;;;;-3.79;75.58;103306.25;5005653;28;20034;-90
2024/01/11 08:03:05;;;;;;;25.02;10.82;;;;;;;-3.70;76.11;103316.66;5025472;28;20087;-87
2024/01/11 08:05:31;;;;;;;23.35;10.70;;;;;;;-3.62;76.13;103306.41;5003174;28;20038;-89
2024/01/11 08:07:56;;;;;;;20.88;11.30;;;;;;;-3.52;76.29;103306.63;5018927;28;20400;-90
2024/01/11 08:10:22;;;;;;;23.13;10.95;;;;;;;-3.35;75.97;103310.09;4986321;28;20497;-89
2024/01/11 08:12:47;;;;;;;21.10;11.18;;;;;;;-3.31;75.65;103283.81;4985828;28;20385;-91
2024/01/11 08:15:12;;;;;;;26.42;12.40;;;;;;;-3.15;75.62;103276.00;5001892;28;20478;-87
2024/01/11 08:17:39;;;;;;;23.13;11.52;;;;;;;-2.82;75.95;103295.03;5018124;28;20044;-86
2024/01/11 08:20:07;;;;;;;24.00;12.55;;;;;;;-2.54;75.95;103291.03;5018492;28;20037;-87
2024/01/11 08:22:35;;;;;;;24.73;12.07;;;;;;;-2.24;75.96;103281.97;5002896;28;20133;-88
2024/01/11 08:25:02;;;;;;;24.77;11.70;;;;;;;-1.98;74.78;103269.03;4986161;28;20154;-87
2024/01/11 08:27:27;;;;;;;25.88;12.57;;;;;;;-1.63;73.65;103275.13;5035793;28;20038;-86
2024/01/11 08:29:52;;;;;;;22.02;12.13;;;;;;;-1.20;73.05;103293.97;5023183;28;20064;-86
2024/01/11 08:32:18;;;;;;;25.67;12.35;;;;;;;-1.07;72.36;103284.97;5034691;28;20072;-86
2024/01/11 08:34:43;;;;;;;25.27;12.60;;;;;;;-0.82;70.76;103305.47;5034252;28;20040;-86
2024/01/11 08:37:09;;;;;;;22.73;12.40;;;;;;;-0.60;70.49;103305.84;5035468;28;20122;-85
2024/01/11 08:39:34;;;;;;;23.45;12.15;;;;;;;-0.43;69.89;103305.75;5017642;28;20116;-85
2024/01/11 08:42:00;;;;;;;23.15;11.93;;;;;;;-0.14;69.78;103294.59;5033913;28;20072;-84
2024/01/11 08:44:25;;;;;;;23.63;12.40;;;;;;;0.06;68.86;103280.88;5001437;28;20033;-84
2024/01/11 08:46:51;;;;;;;24.42;12.63;;;;;;;0.26;68.48;103283.63;5017542;28;20482;-85
2024/01/11 08:49:16;;;;;;;25.63;12.27;;;;;;;0.43;67.90;103283.47;5017665;28;20033;-86
2024/01/11 08:51:41;;;;;;;25.13;11.75;;;;;;;0.50;66.92;103262.41;5001653;28;20044;-86
2024/01/11 08:54:09;;;;;;;22.05;11.88;;;;;;;0.89;66.83;103300.59;5034890;28;20079;-87
2024/01/11 08:56:35;;;;;;;24.25;12.55;;;;;;;1.04;65.31;103306.25;5001751;28;20041;-87
2024/01/11 08:59:01;;;;;;;25.42;12.95;;;;;;;0.85;64.30;103266.34;5017220;28;20084;-87
2024/01/11 09:01:26;;;;;;;25.35;12.65;;;;;;;1.28;64.41;103317.91;5017922;28;20032;-88
2024/01/11 09:03:52;;;;;;;26.40;13.82;;;;;;;1.38;63.71;103319.66;5018092;28;20029;-88
2024/01/11 09:06:17;;;;;;;28.27;13.52;;;;;;;1.49;64.12;103296.34;5033947;28;20493;-90
2024/01/11 09:08:43;;;;;;;25.30;13.00;;;;;;;1.76;64.55;103309.94;5017324;28;20044;-89
2024/01/11 09:11:10;;;;;;;23.45;12.90;;;;;;;1.90;63.18;103291.16;5033647;28;20040;-90
2024/01/11 09:13:36;;;;;;;25.83;13.02;;;;;;;2.32;62.23;103313.84;5034511;28;20592;-92
2024/01/11 09:16:01;;;;;;;22.58;11.98;;;;;;;2.51;62.78;103284.94;5033484;28;20057;-91
2024/01/11 09:18:27;;;;;;;23.35;12.60;;;;;;;2.71;60.21;103308.41;5016955;28;20041;-93
2024/01/11 09:20:52;;;;;;;21.33;12.23;;;;;;;2.91;60.81;103314.31;5016953;28;20160;-93
2024/01/11 09:23:18;;;;;;;26.30;13.57;;;;;;;2.84;59.44;103296.34;5033360;28;20502;-93
2024/01/11 09:25:44;;;;;;;25.48;12.57;;;;;;;3.06;59.46;103309.44;5033643;28;20037;-94
2024/01/11 09:28:11;;;;;;;24.90;13.38;;;;;;;3.23;58.69;103317.84;5017222;28;20048;-93
2024/01/11 09:30:37;;;;;;;22.25;13.45;;;;;;;3.25;58.76;103297.97;5033346;28;20406;-93
2024/01/11 09:33:05;;;;;;;26.85;13.18;;;;;;;3.58;59.17;103324.94;5034296;28;20034;-93
2024/01/11 09:35:39;;;;;;;25.23;13.63;;;;;;;3.91;58.72;103346.69;5040723;28;20033;-94
2024/01/11 09:38:07;;;;;;;27.60;13.65;;;;;;;3.82;58.29;103298.91;5029366;28;20041;-91
2024/01/11 09:40:33;;;;;;;26.67;13.32;;;;;;;3.97;56.56;103316.69;5053573;28;20038;-93
2024/01/11 09:42:58;;;;;;;26.05;13.73;;;;;;;4.19;56.87;103334.03;5053953;28;20085;-91
2024/01/11 09:45:25;;;;;;;24.33;13.48;;;;;;;4.11;56.11;103315.16;5038211;28;20029;-93
2024/01/11 09:47:52;;;;;;;23.45;13.82;;;;;;;4.25;56.06;103319.72;5035174;28;20450;-93
2024/01/11 09:50:21;;;;;;;24.70;13.73;;;;;;;4.52;56.49;103315.66;5034563;28;20549;-93
2024/01/11 09:52:48;;;;;;;30.90;13.82;;;;;;;4.59;54.81;103314.41;5033044;28;20132;-93
2024/01/11 09:55:14;;;;;;;25.58;13.80;;;;;;;4.93;55.27;103324.78;5034289;28;20041;-92
2024/01/11 09:57:48;;;;;;;23.77;13.68;;;;;;;5.04;53.12;103313.34;5033198;28;20363;-93
2024/01/11 10:00:18;;;;;;;25.02;14.13;;;;;;;5.12;53.34;103313.91;5033024;28;20026;-93
2024/01/11 10:02:46;;;;;;;29.15;15.45;;;;;;;5.08;51.87;103336.34;5033042;28;20389;-93
2024/01/11 10:05:16;;;;;;;26.30;14.15;;;;;;;5.12;52.20;103314.81;5033777;28;20051;-93
2024/01/11 10:07:41;;;;;;;24.48;14.50;;;;;;;5.12;50.61;103312.19;5033867;28;20033;-92
2024/01/11 10:10:10;;;;;;;28.75;14.77;;;;;;;5.31;50.67;103344.97;5032632;28;20099;-93
2024/01/11 10:12:36;;;;;;;30.10;15.50;;;;;;;5.53;50.43;103346.63;5032778;28;20114;-94
2024/01/11 10:15:07;;;;;;;25.38;15.07;;;;;;;5.66;49.92;103353.66;5032592;28;20508;-92
2024/01/11 10:17:35;;;;;;;28.83;15.15;;;;;;;5.69;48.94;103332.88;5033231;28;20416;-94
2024/01/11 10:20:02;;;;;;;27.85;14.95;;;;;;;5.85;48.84;103371.59;5032450;28;20060;-93
2024/01/11 10:22:27;;;;;;;28.58;15.13;;;;;;;5.82;49.44;103333.75;5032812;28;20036;-92
2024/01/11 10:25:19;;;;;;;28.00;14.88;;;;;;;6.32;50.99;103379.28;5033345;28;20124;-92
2024/01/11 10:27:47;;;;;;;25.85;14.68;;;;;;;6.35;48.67;103345.38;5029921;28;20041;-93
2024/01/11 10:30:16;;;;;;;29.20;15.90;;;;;;;6.56;47.56;103384.41;5024374;28;20064;-93
2024/01/11 10:32:41;;;;;;;27.63;15.25;;;;;;;6.55;47.49;103365.06;5015632;28;20026;-93
2024/01/11 10:35:10;;;;;;;27.15;15.00;;;;;;;6.78;46.56;103378.06;5015916;28;20532;-93
2024/01/11 10:37:39;;;;;;;24.90;15.50;;;;;;;6.13;46.03;103343.00;5015625;28;20386;-93
2024/01/11 10:40:12;;;;;;;27.80;15.48;;;;;;;6.14;47.41;103338.66;4999860;28;20467;-93
2024/01/11 10:42:46;;;;;;;;;;;;;;;6.50;50.08;103388.41;5016208;28;20112;-92
2024/01/11 10:45:16;;;;;;;26.65;15.55;;;;;;;6.01;46.73;103335.19;5033505;28;19909;-93
2024/01/11 10:47:57;;;;;;;27.40;15.85;;;;;;;6.16;46.94;103337.94;5015678;28;20021;-93
2024/01/11 10:50:23;;;;;;;28.42;15.40;;;;;;;6.34;47.00;103326.88;5015835;28;20079;-94
2024/01/11 10:53:15;;;;;;;29.92;16.25;;;;;;;6.60;46.74;103344.41;5033289;28;20033;-94
2024/01/11 10:55:51;;;;;;;33.17;15.73;;;;;;;6.95;46.41;103359.88;5015962;28;20039;-93
2024/01/11 10:58:22;;;;;;;30.25;15.68;;;;;;;7.32;45.39;103363.16;5016154;28;20032;-93
2024/01/11 11:00:52;;;;;;;26.45;15.93;;;;;;;7.22;44.48;103322.22;5015219;28;20029;-94
2024/01/11 11:03:30;;;;;;;;;;;;;;;;;;;;;
2024/01/11 11:05:58;;;;;;;26.10;16.15;;;;;;;7.08;44.41;103322.16;5037842;28;20029;-91
2024/01/11 11:08:25;;;;;;;27.25;15.88;;;;;;;7.52;45.22;103378.50;5037264;28;20037;-91